sensor_id;sensor_type;location;lat;lon;timestamp;P1;durP1;ratioP1;P2;durP2;ratioP2
74152;SDS011;62505;46.070;14.492;2022-11-09T00:02:16;8.35;;;5.63;;
74152;SDS011;62505;46.070;14.492;2022-11-09T00:04:43;7.72;;;5.35;;
74152;SDS011;62505;46.070;14.492;2022-11-09T00:07:10;8.77;;;5.28;;
74152;SDS011;62505;46.070;14.492;2022-11-09T00:09:36;7.43;;;5.38;;
74152;SDS011;62505;46.070;14.492;2022-11-09T00:12:04;10.00;;;5.63;;
74152;SDS011;62505;46.070;14.492;2022-11-09T00:14:31;8.48;;;5.78;;
74152;SDS011;62505;46.070;14.492;2022-11-09T00:16:58;8.77;;;4.78;;
74152;SDS011;62505;46.070;14.492;2022-11-09T00:19:27;10.05;;;6.00;;
74152;SDS011;62505;46.070;14.492;2022-11-09T00:21:54;6.20;;;4.85;;
74152;SDS011;62505;46.070;14.492;2022-11-09T00:24:21;8.07;;;5.25;;
74152;SDS011;62505;46.070;14.492;2022-11-09T00:26:47;6.50;;;4.82;;
74152;SDS011;62505;46.070;14.492;2022-11-09T00:29:14;6.38;;;4.72;;
74152;SDS011;62505;46.070;14.492;2022-11-09T00:31:41;10.02;;;5.43;;
74152;SDS011;62505;46.070;14.492;2022-11-09T00:34:08;7.70;;;5.20;;
74152;SDS011;62505;46.070;14.492;2022-11-09T00:36:36;7.32;;;5.65;;
74152;SDS011;62505;46.070;14.492;2022-11-09T00:39:03;6.68;;;4.85;;
74152;SDS011;62505;46.070;14.492;2022-11-09T00:41:30;7.88;;;5.03;;
74152;SDS011;62505;46.070;14.492;2022-11-09T00:43:57;10.30;;;5.60;;
74152;SDS011;62505;46.070;14.492;2022-11-09T00:46:24;6.80;;;5.18;;
74152;SDS011;62505;46.070;14.492;2022-11-09T00:48:52;6.60;;;4.88;;
74152;SDS011;62505;46.070;14.492;2022-11-09T00:51:20;7.07;;;4.80;;
74152;SDS011;62505;46.070;14.492;2022-11-09T00:53:48;9.02;;;5.03;;
74152;SDS011;62505;46.070;14.492;2022-11-09T00:56:18;8.10;;;4.90;;
74152;SDS011;62505;46.070;14.492;2022-11-09T00:58:45;6.32;;;4.57;;
74152;SDS011;62505;46.070;14.492;2022-11-09T01:01:13;6.20;;;4.63;;
74152;SDS011;62505;46.070;14.492;2022-11-09T01:03:41;7.78;;;4.68;;
74152;SDS011;62505;46.070;14.492;2022-11-09T01:06:08;8.07;;;4.90;;
74152;SDS011;62505;46.070;14.492;2022-11-09T01:08:40;6.07;;;4.80;;
74152;SDS011;62505;46.070;14.492;2022-11-09T01:11:08;7.82;;;5.20;;
74152;SDS011;62505;46.070;14.492;2022-11-09T01:13:36;6.45;;;4.68;;
74152;SDS011;62505;46.070;14.492;2022-11-09T01:16:03;7.05;;;4.90;;
74152;SDS011;62505;46.070;14.492;2022-11-09T01:18:32;6.93;;;5.22;;
74152;SDS011;62505;46.070;14.492;2022-11-09T01:21:00;6.65;;;4.97;;
74152;SDS011;62505;46.070;14.492;2022-11-09T01:23:28;7.47;;;5.68;;
74152;SDS011;62505;46.070;14.492;2022-11-09T01:25:58;8.38;;;5.00;;
74152;SDS011;62505;46.070;14.492;2022-11-09T01:28:28;6.53;;;4.88;;
74152;SDS011;62505;46.070;14.492;2022-11-09T01:30:59;7.45;;;5.43;;
74152;SDS011;62505;46.070;14.492;2022-11-09T01:33:26;7.75;;;4.68;;
74152;SDS011;62505;46.070;14.492;2022-11-09T01:35:54;8.02;;;4.85;;
74152;SDS011;62505;46.070;14.492;2022-11-09T01:38:26;5.28;;;4.75;;
74152;SDS011;62505;46.070;14.492;2022-11-09T01:40:53;6.20;;;4.57;;
74152;SDS011;62505;46.070;14.492;2022-11-09T01:43:21;6.72;;;4.55;;
74152;SDS011;62505;46.070;14.492;2022-11-09T01:45:52;6.00;;;4.50;;
74152;SDS011;62505;46.070;14.492;2022-11-09T01:48:23;6.95;;;4.78;;
74152;SDS011;62505;46.070;14.492;2022-11-09T01:50:58;6.78;;;5.10;;
74152;SDS011;62505;46.070;14.492;2022-11-09T01:53:32;8.90;;;5.47;;
74152;SDS011;62505;46.070;14.492;2022-11-09T01:56:03;6.22;;;5.20;;
74152;SDS011;62505;46.070;14.492;2022-11-09T01:58:35;7.45;;;4.38;;
74152;SDS011;62505;46.070;14.492;2022-11-09T02:01:06;7.07;;;4.50;;
74152;SDS011;62505;46.070;14.492;2022-11-09T02:03:36;7.28;;;4.70;;
74152;SDS011;62505;46.070;14.492;2022-11-09T02:06:07;6.38;;;4.65;;
74152;SDS011;62505;46.070;14.492;2022-11-09T02:08:37;7.82;;;4.95;;
74152;SDS011;62505;46.070;14.492;2022-11-09T02:11:06;7.28;;;5.13;;
74152;SDS011;62505;46.070;14.492;2022-11-09T02:13:35;6.95;;;4.85;;
74152;SDS011;62505;46.070;14.492;2022-11-09T02:16:06;7.22;;;5.00;;
74152;SDS011;62505;46.070;14.492;2022-11-09T02:18:35;7.28;;;4.95;;
74152;SDS011;62505;46.070;14.492;2022-11-09T02:21:06;6.05;;;5.03;;
74152;SDS011;62505;46.070;14.492;2022-11-09T02:23:33;6.43;;;4.65;;
74152;SDS011;62505;46.070;14.492;2022-11-09T02:26:00;6.55;;;4.68;;
74152;SDS011;62505;46.070;14.492;2022-11-09T02:28:31;6.85;;;5.20;;
74152;SDS011;62505;46.070;14.492;2022-11-09T02:31:00;6.40;;;4.85;;
74152;SDS011;62505;46.070;14.492;2022-11-09T02:33:38;8.35;;;4.95;;
74152;SDS011;62505;46.070;14.492;2022-11-09T02:36:09;8.10;;;5.10;;
74152;SDS011;62505;46.070;14.492;2022-11-09T02:38:36;6.35;;;4.68;;
74152;SDS011;62505;46.070;14.492;2022-11-09T02:41:03;7.65;;;5.00;;
74152;SDS011;62505;46.070;14.492;2022-11-09T02:43:31;7.63;;;4.90;;
74152;SDS011;62505;46.070;14.492;2022-11-09T02:45:58;8.10;;;5.07;;
74152;SDS011;62505;46.070;14.492;2022-11-09T02:48:25;7.07;;;4.35;;
74152;SDS011;62505;46.070;14.492;2022-11-09T02:50:52;7.35;;;4.97;;
74152;SDS011;62505;46.070;14.492;2022-11-09T02:53:20;6.03;;;4.20;;
74152;SDS011;62505;46.070;14.492;2022-11-09T02:55:47;6.07;;;4.15;;
74152;SDS011;62505;46.070;14.492;2022-11-09T02:58:14;7.88;;;4.85;;
74152;SDS011;62505;46.070;14.492;2022-11-09T03:00:41;6.18;;;4.78;;
74152;SDS011;62505;46.070;14.492;2022-11-09T03:03:08;9.65;;;4.90;;
74152;SDS011;62505;46.070;14.492;2022-11-09T03:05:35;6.10;;;4.47;;
74152;SDS011;62505;46.070;14.492;2022-11-09T03:08:02;6.63;;;4.97;;
74152;SDS011;62505;46.070;14.492;2022-11-09T03:10:30;5.82;;;4.80;;
74152;SDS011;62505;46.070;14.492;2022-11-09T03:12:57;7.32;;;4.85;;
74152;SDS011;62505;46.070;14.492;2022-11-09T03:15:24;5.57;;;4.43;;
74152;SDS011;62505;46.070;14.492;2022-11-09T03:17:51;5.28;;;4.20;;
74152;SDS011;62505;46.070;14.492;2022-11-09T03:20:18;7.40;;;4.72;;
74152;SDS011;62505;46.070;14.492;2022-11-09T03:22:45;5.75;;;4.25;;
74152;SDS011;62505;46.070;14.492;2022-11-09T03:25:12;6.47;;;5.10;;
74152;SDS011;62505;46.070;14.492;2022-11-09T03:27:40;6.38;;;4.80;;
74152;SDS011;62505;46.070;14.492;2022-11-09T03:30:07;7.25;;;4.78;;
74152;SDS011;62505;46.070;14.492;2022-11-09T03:32:35;5.95;;;4.55;;
74152;SDS011;62505;46.070;14.492;2022-11-09T03:35:02;6.25;;;5.00;;
74152;SDS011;62505;46.070;14.492;2022-11-09T03:37:29;7.20;;;4.57;;
74152;SDS011;62505;46.070;14.492;2022-11-09T03:39:56;6.05;;;4.72;;
74152;SDS011;62505;46.070;14.492;2022-11-09T03:42:23;7.28;;;5.00;;
74152;SDS011;62505;46.070;14.492;2022-11-09T03:44:51;6.47;;;4.72;;
74152;SDS011;62505;46.070;14.492;2022-11-09T03:47:18;5.15;;;3.97;;
74152;SDS011;62505;46.070;14.492;2022-11-09T03:49:45;5.88;;;4.53;;
74152;SDS011;62505;46.070;14.492;2022-11-09T03:52:12;5.82;;;4.40;;
74152;SDS011;62505;46.070;14.492;2022-11-09T03:54:38;6.95;;;4.63;;
74152;SDS011;62505;46.070;14.492;2022-11-09T03:57:05;6.97;;;5.18;;
74152;SDS011;62505;46.070;14.492;2022-11-09T03:59:32;6.00;;;4.22;;
74152;SDS011;62505;46.070;14.492;2022-11-09T04:02:01;6.30;;;5.10;;
74152;SDS011;62505;46.070;14.492;2022-11-09T04:04:28;6.35;;;4.30;;
74152;SDS011;62505;46.070;14.492;2022-11-09T04:06:55;6.03;;;4.63;;
74152;SDS011;62505;46.070;14.492;2022-11-09T04:09:22;6.25;;;4.43;;
74152;SDS011;62505;46.070;14.492;2022-11-09T04:11:49;6.40;;;4.50;;
74152;SDS011;62505;46.070;14.492;2022-11-09T04:14:16;6.63;;;4.72;;
74152;SDS011;62505;46.070;14.492;2022-11-09T04:16:42;5.97;;;4.43;;
74152;SDS011;62505;46.070;14.492;2022-11-09T04:19:11;6.68;;;4.82;;
74152;SDS011;62505;46.070;14.492;2022-11-09T04:21:38;5.45;;;4.35;;
74152;SDS011;62505;46.070;14.492;2022-11-09T04:24:05;5.32;;;4.22;;
74152;SDS011;62505;46.070;14.492;2022-11-09T04:26:32;6.28;;;4.55;;
74152;SDS011;62505;46.070;14.492;2022-11-09T04:28:59;9.63;;;5.05;;
74152;SDS011;62505;46.070;14.492;2022-11-09T04:31:26;6.95;;;5.13;;
74152;SDS011;62505;46.070;14.492;2022-11-09T04:33:53;6.97;;;4.90;;
74152;SDS011;62505;46.070;14.492;2022-11-09T04:36:21;6.95;;;4.68;;
74152;SDS011;62505;46.070;14.492;2022-11-09T04:38:48;5.85;;;4.47;;
74152;SDS011;62505;46.070;14.492;2022-11-09T04:41:15;5.82;;;4.30;;
74152;SDS011;62505;46.070;14.492;2022-11-09T04:43:42;4.97;;;4.13;;
74152;SDS011;62505;46.070;14.492;2022-11-09T04:46:09;6.00;;;4.70;;
74152;SDS011;62505;46.070;14.492;2022-11-09T04:48:36;7.68;;;4.55;;
74152;SDS011;62505;46.070;14.492;2022-11-09T04:51:04;5.40;;;4.50;;
74152;SDS011;62505;46.070;14.492;2022-11-09T04:53:34;6.22;;;4.60;;
74152;SDS011;62505;46.070;14.492;2022-11-09T04:56:01;6.57;;;4.38;;
74152;SDS011;62505;46.070;14.492;2022-11-09T04:58:29;5.65;;;4.38;;
74152;SDS011;62505;46.070;14.492;2022-11-09T05:01:00;8.23;;;4.78;;
74152;SDS011;62505;46.070;14.492;2022-11-09T05:03:29;6.95;;;4.97;;
74152;SDS011;62505;46.070;14.492;2022-11-09T05:05:55;5.57;;;4.47;;
74152;SDS011;62505;46.070;14.492;2022-11-09T05:08:23;6.32;;;4.40;;
74152;SDS011;62505;46.070;14.492;2022-11-09T05:10:54;6.38;;;4.35;;
74152;SDS011;62505;46.070;14.492;2022-11-09T05:13:21;5.28;;;4.10;;
74152;SDS011;62505;46.070;14.492;2022-11-09T05:15:48;7.50;;;4.97;;
74152;SDS011;62505;46.070;14.492;2022-11-09T05:18:15;6.57;;;4.05;;
74152;SDS011;62505;46.070;14.492;2022-11-09T05:20:42;6.03;;;4.32;;
74152;SDS011;62505;46.070;14.492;2022-11-09T05:23:09;5.88;;;4.28;;
74152;SDS011;62505;46.070;14.492;2022-11-09T05:25:55;6.68;;;4.60;;
74152;SDS011;62505;46.070;14.492;2022-11-09T05:28:22;7.00;;;4.93;;
74152;SDS011;62505;46.070;14.492;2022-11-09T05:30:48;7.03;;;4.40;;
74152;SDS011;62505;46.070;14.492;2022-11-09T05:33:15;4.80;;;4.03;;
74152;SDS011;62505;46.070;14.492;2022-11-09T05:35:42;6.03;;;4.45;;
74152;SDS011;62505;46.070;14.492;2022-11-09T05:38:09;6.80;;;4.63;;
74152;SDS011;62505;46.070;14.492;2022-11-09T05:40:36;5.78;;;4.28;;
74152;SDS011;62505;46.070;14.492;2022-11-09T05:43:04;5.97;;;4.13;;
74152;SDS011;62505;46.070;14.492;2022-11-09T05:45:31;6.00;;;4.40;;
74152;SDS011;62505;46.070;14.492;2022-11-09T05:47:58;6.18;;;4.30;;
74152;SDS011;62505;46.070;14.492;2022-11-09T05:50:29;5.22;;;4.28;;
74152;SDS011;62505;46.070;14.492;2022-11-09T05:52:57;5.85;;;4.10;;
74152;SDS011;62505;46.070;14.492;2022-11-09T05:55:24;5.63;;;4.18;;
74152;SDS011;62505;46.070;14.492;2022-11-09T05:57:51;6.22;;;4.53;;
74152;SDS011;62505;46.070;14.492;2022-11-09T06:00:20;6.30;;;4.13;;
74152;SDS011;62505;46.070;14.492;2022-11-09T06:02:47;6.05;;;4.45;;
74152;SDS011;62505;46.070;14.492;2022-11-09T06:05:14;6.35;;;4.38;;
74152;SDS011;62505;46.070;14.492;2022-11-09T06:07:41;6.95;;;4.95;;
74152;SDS011;62505;46.070;14.492;2022-11-09T06:10:08;6.53;;;5.03;;
74152;SDS011;62505;46.070;14.492;2022-11-09T06:12:36;5.53;;;4.13;;
74152;SDS011;62505;46.070;14.492;2022-11-09T06:15:03;5.40;;;4.55;;
74152;SDS011;62505;46.070;14.492;2022-11-09T06:17:32;7.97;;;5.07;;
74152;SDS011;62505;46.070;14.492;2022-11-09T06:19:59;7.47;;;5.38;;
74152;SDS011;62505;46.070;14.492;2022-11-09T06:22:26;10.73;;;5.43;;
74152;SDS011;62505;46.070;14.492;2022-11-09T06:24:53;7.43;;;5.32;;
74152;SDS011;62505;46.070;14.492;2022-11-09T06:27:20;13.75;;;5.38;;
74152;SDS011;62505;46.070;14.492;2022-11-09T06:29:47;13.32;;;5.68;;
74152;SDS011;62505;46.070;14.492;2022-11-09T06:32:13;12.65;;;5.65;;
74152;SDS011;62505;46.070;14.492;2022-11-09T06:34:42;9.00;;;4.93;;
74152;SDS011;62505;46.070;14.492;2022-11-09T06:37:12;10.93;;;5.72;;
74152;SDS011;62505;46.070;14.492;2022-11-09T06:39:41;16.15;;;5.57;;
74152;SDS011;62505;46.070;14.492;2022-11-09T06:42:08;10.43;;;5.60;;
74152;SDS011;62505;46.070;14.492;2022-11-09T06:44:35;7.20;;;5.13;;
74152;SDS011;62505;46.070;14.492;2022-11-09T06:47:02;7.50;;;4.75;;
74152;SDS011;62505;46.070;14.492;2022-11-09T06:49:29;9.52;;;4.95;;
74152;SDS011;62505;46.070;14.492;2022-11-09T06:51:57;7.45;;;5.55;;
74152;SDS011;62505;46.070;14.492;2022-11-09T06:54:24;8.55;;;5.18;;
74152;SDS011;62505;46.070;14.492;2022-11-09T06:56:52;7.80;;;5.20;;
74152;SDS011;62505;46.070;14.492;2022-11-09T06:59:19;9.50;;;5.47;;
74152;SDS011;62505;46.070;14.492;2022-11-09T07:01:46;14.40;;;5.85;;
74152;SDS011;62505;46.070;14.492;2022-11-09T07:04:13;11.07;;;5.82;;
74152;SDS011;62505;46.070;14.492;2022-11-09T07:06:40;12.40;;;5.50;;
74152;SDS011;62505;46.070;14.492;2022-11-09T07:09:09;10.80;;;4.85;;
74152;SDS011;62505;46.070;14.492;2022-11-09T07:11:36;10.13;;;4.80;;
74152;SDS011;62505;46.070;14.492;2022-11-09T07:14:04;13.63;;;5.20;;
74152;SDS011;62505;46.070;14.492;2022-11-09T07:16:31;8.82;;;5.15;;
74152;SDS011;62505;46.070;14.492;2022-11-09T07:18:58;18.45;;;5.35;;
74152;SDS011;62505;46.070;14.492;2022-11-09T07:21:25;15.90;;;4.82;;
74152;SDS011;62505;46.070;14.492;2022-11-09T07:23:52;15.70;;;5.28;;
74152;SDS011;62505;46.070;14.492;2022-11-09T07:26:21;15.63;;;5.60;;
74152;SDS011;62505;46.070;14.492;2022-11-09T07:28:47;16.75;;;5.65;;
74152;SDS011;62505;46.070;14.492;2022-11-09T07:31:14;7.45;;;5.35;;
74152;SDS011;62505;46.070;14.492;2022-11-09T07:33:41;10.95;;;5.18;;
74152;SDS011;62505;46.070;14.492;2022-11-09T07:36:08;14.93;;;5.55;;
74152;SDS011;62505;46.070;14.492;2022-11-09T07:38:35;13.65;;;6.18;;
74152;SDS011;62505;46.070;14.492;2022-11-09T07:41:02;9.68;;;5.45;;
74152;SDS011;62505;46.070;14.492;2022-11-09T07:43:30;14.27;;;5.50;;
74152;SDS011;62505;46.070;14.492;2022-11-09T07:45:58;12.05;;;5.68;;
74152;SDS011;62505;46.070;14.492;2022-11-09T07:48:28;8.43;;;4.85;;
74152;SDS011;62505;46.070;14.492;2022-11-09T07:50:55;13.15;;;5.57;;
74152;SDS011;62505;46.070;14.492;2022-11-09T07:53:25;12.45;;;5.53;;
74152;SDS011;62505;46.070;14.492;2022-11-09T07:55:55;10.35;;;5.50;;
74152;SDS011;62505;46.070;14.492;2022-11-09T07:58:22;12.77;;;6.13;;
74152;SDS011;62505;46.070;14.492;2022-11-09T08:00:51;12.70;;;5.40;;
74152;SDS011;62505;46.070;14.492;2022-11-09T08:03:18;9.77;;;5.05;;
74152;SDS011;62505;46.070;14.492;2022-11-09T08:05:45;11.88;;;5.15;;
74152;SDS011;62505;46.070;14.492;2022-11-09T08:08:12;11.00;;;5.63;;
74152;SDS011;62505;46.070;14.492;2022-11-09T08:10:40;9.50;;;5.60;;
74152;SDS011;62505;46.070;14.492;2022-11-09T08:13:10;9.65;;;5.38;;
74152;SDS011;62505;46.070;14.492;2022-11-09T08:15:38;8.63;;;5.20;;
74152;SDS011;62505;46.070;14.492;2022-11-09T08:18:09;11.85;;;5.10;;
74152;SDS011;62505;46.070;14.492;2022-11-09T08:20:37;11.77;;;5.60;;
74152;SDS011;62505;46.070;14.492;2022-11-09T08:23:04;12.65;;;5.53;;
74152;SDS011;62505;46.070;14.492;2022-11-09T08:25:32;11.38;;;6.40;;
74152;SDS011;62505;46.070;14.492;2022-11-09T08:27:59;10.70;;;6.32;;
74152;SDS011;62505;46.070;14.492;2022-11-09T08:30:27;12.38;;;7.50;;
74152;SDS011;62505;46.070;14.492;2022-11-09T08:32:54;10.95;;;7.60;;
74152;SDS011;62505;46.070;14.492;2022-11-09T08:35:23;14.40;;;9.05;;
74152;SDS011;62505;46.070;14.492;2022-11-09T08:37:50;14.57;;;9.68;;
74152;SDS011;62505;46.070;14.492;2022-11-09T08:40:19;16.95;;;11.05;;
74152;SDS011;62505;46.070;14.492;2022-11-09T08:42:48;18.20;;;11.95;;
74152;SDS011;62505;46.070;14.492;2022-11-09T08:45:17;18.65;;;11.48;;
74152;SDS011;62505;46.070;14.492;2022-11-09T08:47:45;17.23;;;11.00;;
74152;SDS011;62505;46.070;14.492;2022-11-09T08:50:13;16.50;;;10.90;;
74152;SDS011;62505;46.070;14.492;2022-11-09T08:52:42;15.32;;;10.27;;
74152;SDS011;62505;46.070;14.492;2022-11-09T08:55:09;13.55;;;9.23;;
74152;SDS011;62505;46.070;14.492;2022-11-09T08:57:36;15.02;;;9.50;;
74152;SDS011;62505;46.070;14.492;2022-11-09T09:00:04;11.98;;;8.98;;
74152;SDS011;62505;46.070;14.492;2022-11-09T09:02:31;14.23;;;9.40;;
74152;SDS011;62505;46.070;14.492;2022-11-09T09:04:58;15.07;;;9.07;;
74152;SDS011;62505;46.070;14.492;2022-11-09T09:07:25;12.02;;;8.48;;
74152;SDS011;62505;46.070;14.492;2022-11-09T09:09:54;11.23;;;8.15;;
74152;SDS011;62505;46.070;14.492;2022-11-09T09:12:21;10.68;;;8.18;;
74152;SDS011;62505;46.070;14.492;2022-11-09T09:14:48;10.95;;;7.40;;
74152;SDS011;62505;46.070;14.492;2022-11-09T09:17:15;15.82;;;8.25;;
74152;SDS011;62505;46.070;14.492;2022-11-09T09:19:42;11.98;;;7.50;;
74152;SDS011;62505;46.070;14.492;2022-11-09T09:22:09;11.52;;;7.90;;
74152;SDS011;62505;46.070;14.492;2022-11-09T09:24:36;13.95;;;8.48;;
74152;SDS011;62505;46.070;14.492;2022-11-09T09:27:05;10.77;;;7.55;;
74152;SDS011;62505;46.070;14.492;2022-11-09T09:29:32;11.20;;;7.97;;
74152;SDS011;62505;46.070;14.492;2022-11-09T09:31:59;10.50;;;7.03;;
74152;SDS011;62505;46.070;14.492;2022-11-09T09:34:26;12.82;;;7.40;;
74152;SDS011;62505;46.070;14.492;2022-11-09T09:36:53;10.35;;;7.30;;
74152;SDS011;62505;46.070;14.492;2022-11-09T09:39:20;10.57;;;7.35;;
74152;SDS011;62505;46.070;14.492;2022-11-09T09:41:50;12.15;;;7.72;;
74152;SDS011;62505;46.070;14.492;2022-11-09T09:44:22;10.55;;;7.68;;
74152;SDS011;62505;46.070;14.492;2022-11-09T09:46:54;10.55;;;7.22;;
74152;SDS011;62505;46.070;14.492;2022-11-09T09:49:29;11.90;;;6.78;;
74152;SDS011;62505;46.070;14.492;2022-11-09T09:52:00;9.30;;;6.80;;
74152;SDS011;62505;46.070;14.492;2022-11-09T09:54:35;10.50;;;7.00;;
74152;SDS011;62505;46.070;14.492;2022-11-09T09:57:11;11.30;;;6.88;;
74152;SDS011;62505;46.070;14.492;2022-11-09T09:59:46;10.48;;;6.95;;
74152;SDS011;62505;46.070;14.492;2022-11-09T10:02:17;9.85;;;7.35;;
74152;SDS011;62505;46.070;14.492;2022-11-09T10:04:48;13.65;;;7.30;;
74152;SDS011;62505;46.070;14.492;2022-11-09T10:07:17;15.07;;;8.10;;
74152;SDS011;62505;46.070;14.492;2022-11-09T10:09:54;16.73;;;8.07;;
74152;SDS011;62505;46.070;14.492;2022-11-09T10:12:31;20.85;;;8.10;;
74152;SDS011;62505;46.070;14.492;2022-11-09T10:15:16;14.00;;;7.38;;
74152;SDS011;62505;46.070;14.492;2022-11-09T10:17:54;21.23;;;7.78;;
74152;SDS011;62505;46.070;14.492;2022-11-09T10:20:39;18.67;;;7.75;;
74152;SDS011;62505;46.070;14.492;2022-11-09T10:23:24;15.52;;;7.45;;
74152;SDS011;62505;46.070;14.492;2022-11-09T10:26:02;19.90;;;8.45;;
74152;SDS011;62505;46.070;14.492;2022-11-09T10:28:30;17.33;;;7.75;;
74152;SDS011;62505;46.070;14.492;2022-11-09T10:31:01;17.13;;;7.35;;
74152;SDS011;62505;46.070;14.492;2022-11-09T10:33:36;15.20;;;7.72;;
74152;SDS011;62505;46.070;14.492;2022-11-09T10:38:50;14.32;;;7.15;;
74152;SDS011;62505;46.070;14.492;2022-11-09T10:41:22;21.38;;;7.75;;
74152;SDS011;62505;46.070;14.492;2022-11-09T10:43:53;20.73;;;7.80;;
74152;SDS011;62505;46.070;14.492;2022-11-09T10:46:21;17.42;;;7.55;;
74152;SDS011;62505;46.070;14.492;2022-11-09T10:48:49;17.63;;;8.10;;
74152;SDS011;62505;46.070;14.492;2022-11-09T10:51:29;13.40;;;7.43;;
74152;SDS011;62505;46.070;14.492;2022-11-09T10:54:14;17.08;;;6.90;;
74152;SDS011;62505;46.070;14.492;2022-11-09T10:56:44;15.30;;;6.95;;
74152;SDS011;62505;46.070;14.492;2022-11-09T11:02:03;13.82;;;6.88;;
74152;SDS011;62505;46.070;14.492;2022-11-09T11:05:28;16.52;;;8.27;;
74152;SDS011;62505;46.070;14.492;2022-11-09T11:07:56;15.98;;;9.80;;
74152;SDS011;62505;46.070;14.492;2022-11-09T11:10:28;17.30;;;10.38;;
74152;SDS011;62505;46.070;14.492;2022-11-09T11:15:52;15.88;;;9.77;;
74152;SDS011;62505;46.070;14.492;2022-11-09T11:18:22;16.17;;;10.30;;
74152;SDS011;62505;46.070;14.492;2022-11-09T11:21:03;19.90;;;10.15;;
74152;SDS011;62505;46.070;14.492;2022-11-09T11:23:32;15.88;;;10.18;;
74152;SDS011;62505;46.070;14.492;2022-11-09T11:26:10;16.88;;;9.88;;
74152;SDS011;62505;46.070;14.492;2022-11-09T11:28:56;15.98;;;10.80;;
74152;SDS011;62505;46.070;14.492;2022-11-09T11:31:26;19.33;;;11.00;;
74152;SDS011;62505;46.070;14.492;2022-11-09T11:33:54;15.45;;;10.50;;
74152;SDS011;62505;46.070;14.492;2022-11-09T11:36:26;19.55;;;10.82;;
74152;SDS011;62505;46.070;14.492;2022-11-09T11:39:05;18.90;;;11.23;;
74152;SDS011;62505;46.070;14.492;2022-11-09T11:44:48;24.48;;;10.02;;
74152;SDS011;62505;46.070;14.492;2022-11-09T11:47:24;18.05;;;8.85;;
74152;SDS011;62505;46.070;14.492;2022-11-09T11:50:02;14.27;;;8.75;;
74152;SDS011;62505;46.070;14.492;2022-11-09T11:52:51;15.95;;;8.88;;
74152;SDS011;62505;46.070;14.492;2022-11-09T11:55:34;20.98;;;9.90;;
74152;SDS011;62505;46.070;14.492;2022-11-09T11:58:16;15.93;;;8.00;;
74152;SDS011;62505;46.070;14.492;2022-11-09T12:00:54;17.13;;;8.27;;
74152;SDS011;62505;46.070;14.492;2022-11-09T12:03:32;16.20;;;8.45;;
74152;SDS011;62505;46.070;14.492;2022-11-09T12:06:25;13.93;;;7.78;;
74152;SDS011;62505;46.070;14.492;2022-11-09T12:09:08;11.18;;;7.03;;
74152;SDS011;62505;46.070;14.492;2022-11-09T12:12:02;15.25;;;8.38;;
74152;SDS011;62505;46.070;14.492;2022-11-09T12:14:39;12.90;;;7.85;;
74152;SDS011;62505;46.070;14.492;2022-11-09T12:17:18;14.52;;;7.25;;
74152;SDS011;62505;46.070;14.492;2022-11-09T12:19:55;13.30;;;7.50;;
74152;SDS011;62505;46.070;14.492;2022-11-09T12:22:35;11.95;;;6.75;;
74152;SDS011;62505;46.070;14.492;2022-11-09T12:25:10;13.13;;;7.00;;
74152;SDS011;62505;46.070;14.492;2022-11-09T12:27:48;12.65;;;7.13;;
74152;SDS011;62505;46.070;14.492;2022-11-09T12:30:27;11.50;;;6.90;;
74152;SDS011;62505;46.070;14.492;2022-11-09T12:33:01;12.50;;;6.90;;
74152;SDS011;62505;46.070;14.492;2022-11-09T12:35:32;14.93;;;6.65;;
74152;SDS011;62505;46.070;14.492;2022-11-09T12:38:09;13.98;;;6.50;;
74152;SDS011;62505;46.070;14.492;2022-11-09T12:40:42;14.30;;;6.88;;
74152;SDS011;62505;46.070;14.492;2022-11-09T12:43:14;17.00;;;6.65;;
74152;SDS011;62505;46.070;14.492;2022-11-09T12:45:44;12.90;;;6.40;;
74152;SDS011;62505;46.070;14.492;2022-11-09T12:48:15;11.88;;;6.13;;
74152;SDS011;62505;46.070;14.492;2022-11-09T12:50:47;13.48;;;6.40;;
74152;SDS011;62505;46.070;14.492;2022-11-09T12:53:16;10.63;;;6.43;;
74152;SDS011;62505;46.070;14.492;2022-11-09T12:55:48;15.60;;;6.40;;
74152;SDS011;62505;46.070;14.492;2022-11-09T12:58:21;10.55;;;6.47;;
74152;SDS011;62505;46.070;14.492;2022-11-09T13:00:51;12.32;;;5.90;;
74152;SDS011;62505;46.070;14.492;2022-11-09T13:03:20;11.10;;;6.63;;
74152;SDS011;62505;46.070;14.492;2022-11-09T13:08:37;11.93;;;6.95;;
74152;SDS011;62505;46.070;14.492;2022-11-09T13:17:00;15.85;;;6.65;;
74152;SDS011;62505;46.070;14.492;2022-11-09T13:19:49;10.88;;;6.38;;
74152;SDS011;62505;46.070;14.492;2022-11-09T13:25:37;11.80;;;6.03;;
74152;SDS011;62505;46.070;14.492;2022-11-09T13:31:10;15.82;;;6.18;;
74152;SDS011;62505;46.070;14.492;2022-11-09T13:33:37;10.07;;;6.05;;
74152;SDS011;62505;46.070;14.492;2022-11-09T13:38:44;7.63;;;5.30;;
74152;SDS011;62505;46.070;14.492;2022-11-09T13:44:16;10.45;;;5.82;;
74152;SDS011;62505;46.070;14.492;2022-11-09T13:46:49;7.63;;;4.95;;
74152;SDS011;62505;46.070;14.492;2022-11-09T13:49:38;9.88;;;5.90;;
74152;SDS011;62505;46.070;14.492;2022-11-09T13:55:28;10.45;;;5.78;;
74152;SDS011;62505;46.070;14.492;2022-11-09T13:57:59;11.60;;;6.13;;
74152;SDS011;62505;46.070;14.492;2022-11-09T14:00:35;9.57;;;5.40;;
74152;SDS011;62505;46.070;14.492;2022-11-09T14:03:03;9.30;;;6.20;;
74152;SDS011;62505;46.070;14.492;2022-11-09T14:05:43;10.23;;;5.60;;
74152;SDS011;62505;46.070;14.492;2022-11-09T14:08:15;9.27;;;5.60;;
74152;SDS011;62505;46.070;14.492;2022-11-09T14:10:51;8.55;;;5.78;;
74152;SDS011;62505;46.070;14.492;2022-11-09T14:16:44;8.00;;;5.13;;
74152;SDS011;62505;46.070;14.492;2022-11-09T14:19:20;10.32;;;5.57;;
74152;SDS011;62505;46.070;14.492;2022-11-09T14:21:53;9.60;;;5.07;;
74152;SDS011;62505;46.070;14.492;2022-11-09T14:24:21;9.15;;;5.03;;
74152;SDS011;62505;46.070;14.492;2022-11-09T14:26:59;8.60;;;5.07;;
74152;SDS011;62505;46.070;14.492;2022-11-09T14:29:29;7.85;;;5.20;;
74152;SDS011;62505;46.070;14.492;2022-11-09T14:31:57;9.88;;;5.32;;
74152;SDS011;62505;46.070;14.492;2022-11-09T14:34:25;11.93;;;5.93;;
74152;SDS011;62505;46.070;14.492;2022-11-09T14:36:52;8.43;;;4.97;;
74152;SDS011;62505;46.070;14.492;2022-11-09T14:39:22;9.52;;;4.97;;
74152;SDS011;62505;46.070;14.492;2022-11-09T14:41:52;9.45;;;5.00;;
74152;SDS011;62505;46.070;14.492;2022-11-09T14:44:22;11.80;;;5.32;;
74152;SDS011;62505;46.070;14.492;2022-11-09T14:46:54;9.98;;;5.63;;
74152;SDS011;62505;46.070;14.492;2022-11-09T14:49:22;11.82;;;5.22;;
74152;SDS011;62505;46.070;14.492;2022-11-09T14:51:50;10.98;;;5.05;;
74152;SDS011;62505;46.070;14.492;2022-11-09T14:54:18;9.10;;;5.00;;
74152;SDS011;62505;46.070;14.492;2022-11-09T14:56:49;9.45;;;5.20;;
74152;SDS011;62505;46.070;14.492;2022-11-09T14:59:19;9.43;;;5.63;;
74152;SDS011;62505;46.070;14.492;2022-11-09T15:01:56;7.47;;;5.15;;
74152;SDS011;62505;46.070;14.492;2022-11-09T15:04:26;10.15;;;4.95;;
74152;SDS011;62505;46.070;14.492;2022-11-09T15:06:53;8.45;;;4.68;;
74152;SDS011;62505;46.070;14.492;2022-11-09T15:09:28;6.53;;;4.45;;
74152;SDS011;62505;46.070;14.492;2022-11-09T15:11:59;7.30;;;5.03;;
74152;SDS011;62505;46.070;14.492;2022-11-09T15:14:27;11.73;;;4.68;;
74152;SDS011;62505;46.070;14.492;2022-11-09T15:17:00;9.35;;;5.28;;
74152;SDS011;62505;46.070;14.492;2022-11-09T15:19:32;6.43;;;4.43;;
74152;SDS011;62505;46.070;14.492;2022-11-09T15:22:02;11.25;;;4.95;;
74152;SDS011;62505;46.070;14.492;2022-11-09T15:24:43;8.95;;;5.07;;